• Join FlightAware (Why Join?)
  • Login
  • US Flag 
01:31PM EDT


 

Airport Tracker/Info


-or-


 

Live Flight TrackerFlight Track Log ✈ DAL3799 ✈ 26-Apr-2013 ✈ KDTW - CYOW

Flight Track Log - Related Links

Times and Time Zones

All times are in EDT time to prevent confusion due to time zone crossing. See the DAL3799 flight status page for this flight to view local times or setup timezone preferences in your user account.

Time Position Orientation Groundspeed Altitude Reporting Facility
EDT Latitude Longitude Course Direction KTS MPH feet Rate Location/Type
10:15PM 42.2058 -83.3556 16° North 150 173 1,300  Level Cleveland Center
10:16PM 42.1600 -83.3536 178° South 192 221 3,300 1,920 Climbing Cleveland Center
10:17PM 42.0892 -83.3478 177° South 270 311 5,500 2,460 Climbing Cleveland Center
10:18PM 42.5399 -83.2347 12° North  Level FlightAware Approximate
10:18PM 42.0556 -83.2681 120° Southeast 290 334 8,600  Level Cleveland Center
10:19PM 42.6562 -83.1998 12° North  Level FlightAware Approximate
10:19PM 42.0978 -83.1550 63° Northeast 290 334 10,600  Level Cleveland Center
10:20PM 42.7724 -83.1644 16° North  Level FlightAware Approximate
10:20PM 42.1861 -83.1278 13° North 292 336 12,900  Level Cleveland Center
10:21PM 42.2819 -83.1286 360° North 297 342 15,100 1,860 Climbing Cleveland Center
10:22PM 42.3819 -83.1300 359° North 326 375 16,700 1,500 Climbing Cleveland Center
10:23PM 42.4819 -83.1339 358° North 338 389 18,200 1,560 Climbing Cleveland Center
10:24PM 42.5778 -83.1322 North 366 421 19,900 1,500 Climbing Cleveland Center
10:25PM 42.6819 -83.1336 359° North 366 421 21,300 1,320 Climbing Cleveland Center
10:26PM 42.7861 -83.1350 359° North 366 421 22,600 1,140 Climbing Cleveland Center
10:27PM 42.8853 -83.0908 18° North 366 421 23,600 900 Climbing Cleveland Center
10:28PM 42.9319 -82.9425 67° East 356 410 24,500 660 Climbing Cleveland Center
10:29PM 42.9686 -82.7792 73° East 398 458 25,000 240 Climbing Cleveland Center
10:30PM 43.0050 -82.6075 74° East 428 493 25,000  Level Cleveland Center
10:31PM 43.0333 -82.4667 75° East 470 541 25,000  Level Toronto Center
10:32PM 43.0667 -82.3000 75° East 480 552 25,000  Level Toronto Center
10:33PM 43.1000 -82.1167 76° East 480 552 25,000  Level Toronto Center
10:34PM 43.1167 -81.9333 83° East 480 552 25,000  Level Toronto Center
10:35PM 43.1833 -81.7667 61° Northeast 480 552 25,000  Level Toronto Center
10:36PM 43.2000 -81.5833 83° East 480 552 25,000  Level Toronto Center
10:37PM 43.2333 -81.4167 75° East 480 552 25,000  Level Toronto Center
10:38PM 43.2667 -81.2333 76° East 480 552 25,000  Level Toronto Center
10:39PM 43.3000 -81.0500 76° East 480 552 25,000  Level Toronto Center
10:40PM 43.3333 -80.9000 73° East 480 552 25,000  Level Toronto Center
10:41PM 43.3833 -80.7167 69° East 480 552 25,000  Level Toronto Center
10:42PM 43.4167 -80.5333 76° East 480 552 25,000  Level Toronto Center
10:43PM 43.4500 -80.3500 76° East 480 552 25,000  Level Toronto Center
10:44PM 43.5000 -80.1833 67° East 470 541 25,000  Level Toronto Center
10:45PM 43.5333 -80.0167 75° East 470 541 25,000  Level Toronto Center
10:46PM 43.5833 -79.8333 69° East 470 541 25,000  Level Toronto Center
10:47PM 43.6333 -79.6833 65° Northeast 470 541 25,000  Level Toronto Center
10:48PM 43.6833 -79.5167 67° East 470 541 25,000  Level Toronto Center
10:49PM 43.7333 -79.3333 69° East 470 541 25,000  Level Toronto Center
10:50PM 43.7833 -79.1667 67° East 470 541 25,000  Level Toronto Center
10:51PM 43.8333 -79.0167 65° Northeast 470 541 25,000  Level Toronto Center
10:52PM 43.8833 -78.8167 71° East 470 541 25,000  Level Toronto Center
10:53PM 43.9333 -78.6667 65° Northeast 470 541 25,000  Level Toronto Center
10:54PM 43.9833 -78.5000 67° East 470 541 25,000  Level Toronto Center
10:55PM 44.0167 -78.3333 74° East 470 541 25,000  Level Toronto Center
10:56PM 44.0833 -78.1500 63° Northeast 470 541 25,000  Level Toronto Center
10:57PM 44.1333 -78.0000 65° Northeast 470 541 25,000  Level Toronto Center
10:59PM 44.2833 -77.7000 55° Northeast 470 541 25,000  Level Toronto Center
11:00PM 44.3667 -77.5500 52° Northeast 470 541 25,000 -360 Level Toronto Center
11:01PM 44.4333 -77.3833 61° Northeast 470 541 24,300 -780 Descending Toronto Center
11:02PM 44.5000 -77.2167 61° Northeast 470 541 23,500 -900 Descending Toronto Center
11:03PM 44.5667 -77.0833 55° Northeast 460 529 22,500 -1,020 Descending Toronto Center
11:04PM 44.6500 -76.9333 52° Northeast 460 529 21,400 -1,140 Descending Montreal Center
11:05PM 44.7167 -76.8167 51° Northeast 450 518 20,200 -1,320 Descending Montreal Center
11:06PM 44.7833 -76.6500 61° Northeast 440 506 18,800 -1,200 Descending Montreal Center
11:07PM 44.8500 -76.5000 58° Northeast 430 495 18,000 -1,440 Descending Toronto Center
11:08PM 44.9167 -76.3833 51° Northeast 420 483 16,200 -1,800 Descending Toronto Center
11:09PM 44.9833 -76.2667 51° Northeast 390 449 14,500 -1,560 Descending Toronto Center
11:10PM 45.0333 -76.1333 62° Northeast 370 426 13,100 -1,500 Descending Toronto Center
11:11PM 45.0333 -76.0167 90° East 330 380 11,500 -1,740 Descending Toronto Center
11:12PM 45.0667 -75.9000 68° East 300 345 9,700 -1,860 Descending Toronto Center
11:13PM 45.0833 -75.7833 79° East 290 334 7,800 -1,800 Descending Toronto Center
11:14PM 45.1000 -75.6833 77° East 280 322 6,100 -1,560 Descending Toronto Center
11:15PM 45.1167 -75.6167 70° East 240 276 4,600 -1,200 Descending Montreal Center
11:16PM 45.1500 -75.5333 60° Northeast 210 242 3,600 -1,020 Descending Montreal Center
11:17PM 45.1833 -75.4667 55° Northeast 190 219 2,600 -780 Descending Montreal Center
11:18PM 45.2167 -75.5167 313° West 190 219 2,100 -480 Descending Montreal Center
11:19PM 45.2500 -75.5833 305° West 190 219 1,700 -600 Descending Montreal Center
11:20PM 45.2833 -75.6333 313° West 130 150 1,000 -660 Descending Montreal Center
11:21PM 45.3000 -75.6667 305° West 130 150 400 -300 Descending Montreal Center
11:22PM 45.3000 -75.6667 90° East 10 12 400  Level Montreal Center